Time;durP1;ratioP1;P1;durP2;ratioP2;P2;SDS_P1;SDS_P2;PMS_P1;PMS_P2;Temp;Humidity;BMP_temperature;BMP_pressure;BME280_temperature;BME280_humidity;BME280_pressure;Samples;Min_cycle;Max_cycle;Signal;HPM_P1;HPM_P2
2022/01/24 00:00:38;;;;;;;;;;;6.90;99.90;;;;;;6141918;23;19920;-81
2022/01/24 00:03:23;;;;;;;;;;;7.40;99.90;;;;;;6113853;23;19935;-81
2022/01/24 00:05:58;;;;;;;;;;;7.70;99.90;;;;;;6223557;22;19923;-80
2022/01/24 00:08:40;;;;;;;;;;;6.80;99.90;;;;;;6270209;22;19919;-81
2022/01/24 00:11:47;;;;;;;;;;;6.90;99.90;;;;;;6267117;22;19919;-82
2022/01/24 00:17:16;;;;;;;;;;;5.50;99.90;;;;;;6294496;22;19923;-81
2022/01/24 00:28:45;;;;;;;;;;;6.60;99.90;;;;;;6252544;22;19919;-81
2022/01/24 00:31:16;;;;;;;;;;;6.80;99.90;;;;;;6267304;22;19949;-81
2022/01/24 00:33:53;;;;;;;;;;;6.60;99.90;;;;;;6294738;22;19920;-82
2022/01/24 00:36:47;;;;;;;;;;;6.50;99.90;;;;;;6293328;22;19923;-82
2022/01/24 00:46:15;;;;;;;;;;;;;;;;;;;;;
2022/01/24 00:56:26;;;;;;;;;;;6.60;99.90;;;;;;6259825;22;20166;-83
2022/01/24 00:59:53;;;;;;;;;;;6.70;99.90;;;;;;6232136;23;19926;-82
2022/01/24 01:02:50;;;;;;;;;;;6.60;99.90;;;;;;6232764;23;20116;-84
2022/01/24 01:18:22;;;;;;;;;;;6.60;99.90;;;;;;6233225;23;19923;-83
2022/01/24 01:24:17;;;;;;;;;;;6.60;99.90;;;;;;6090465;23;19927;-82
2022/01/24 01:27:49;;;;;;;;;;;6.60;99.90;;;;;;6114081;23;20054;-82
2022/01/24 01:30:47;;;;;;;;;;;6.40;99.90;;;;;;5998148;23;19926;-83
2022/01/24 01:39:51;;;;;;;;;;;7.60;99.90;;;;;;5937026;24;19933;-82
2022/01/24 01:56:10;;;;;;;;;;;6.60;99.90;;;;;;5901599;24;19915;-84
2022/01/24 01:59:28;;;;;;;;;;;6.60;99.90;;;;;;6009838;23;19926;-83
2022/01/24 02:02:47;;;;;;;;;;;6.70;99.90;;;;;;6132359;23;19931;-83
2022/01/24 02:05:51;;;;;;;;;;;6.40;99.90;;;;;;6117210;23;20079;-83
2022/01/24 02:12:18;;;;;;;;;;;7.90;99.90;;;;;;6138929;23;19921;-82
2022/01/24 02:15:00;;;;;;;;;;;6.50;99.90;;;;;;6139569;23;19925;-81
2022/01/24 02:23:57;;;;;;;;;;;6.40;99.90;;;;;;6110546;23;19922;-82
2022/01/24 02:26:55;;;;;;;;;;;6.40;99.90;;;;;;6111864;23;19929;-81
2022/01/24 02:30:14;;;;;;;;;;;7.80;99.90;;;;;;6107793;23;20605;-82
2022/01/24 02:33:11;;;;;;;;;;;6.30;99.90;;;;;;6082956;23;19926;-82
2022/01/24 02:35:52;;;;;;;;;;;6.20;99.90;;;;;;6114435;23;19921;-82
2022/01/24 02:54:31;;;;;;;;;;;6.30;99.90;;;;;;6231332;23;19924;-82
2022/01/24 02:57:07;;;;;;;;;;;6.40;99.90;;;;;;6261750;23;19927;-81
2022/01/24 02:59:43;;;;;;;;;;;6.30;99.90;;;;;;6261316;22;19923;-82
2022/01/24 03:02:27;;;;;;;;;;;6.60;99.90;;;;;;6295558;22;19934;-82
2022/01/24 03:05:06;;;;;;;;;;;6.20;99.90;;;;;;6264216;22;19923;-82
2022/01/24 03:07:40;;;;;;;;;;;6.40;99.90;;;;;;6265154;22;19923;-81
2022/01/24 03:10:22;;;;;;;;;;;4.90;99.90;;;;;;6302736;22;19929;-81
2022/01/24 03:13:09;;;;;;;;;;;6.20;99.90;;;;;;6265266;22;19920;-82
2022/01/24 03:15:43;;;;;;;;;;;6.30;99.90;;;;;;6279033;22;19919;-83
2022/01/24 03:18:15;;;;;;;;;;;4.70;99.90;;;;;;6301922;22;19923;-85
2022/01/24 03:20:45;;;;;;;;;;;6.10;99.90;;;;;;6265006;22;19927;-81
2022/01/24 03:23:18;;;;;;;;;;;6.50;99.90;;;;;;6214948;22;19923;-82
2022/01/24 03:25:47;;;;;;;;;;;6.20;99.90;;;;;;6265576;22;19919;-81
2022/01/24 03:28:24;;;;;;;;;;;6.10;99.90;;;;;;6298717;22;19934;-82
2022/01/24 03:30:55;;;;;;;;;;;6.10;99.90;;;;;;6265882;22;19924;-83
2022/01/24 03:33:23;;;;;;;;;;;6.50;99.90;;;;;;6214786;22;20314;-81
2022/01/24 03:35:58;;;;;;;;;;;6.20;99.90;;;;;;6294106;22;19925;-81
2022/01/24 03:38:58;;;;;;;;;;;6.20;99.90;;;;;;6264440;22;19925;-82
2022/01/24 03:41:39;;;;;;;;;;;6.10;99.90;;;;;;6292689;22;19919;-82
2022/01/24 03:44:33;;;;;;;;;;;6.10;99.90;;;;;;6251955;22;19924;-81
2022/01/24 03:47:19;;;;;;;;;;;6.10;99.90;;;;;;6274550;22;19929;-81
2022/01/24 03:50:15;;;;;;;;;;;6.10;99.90;;;;;;6261475;22;19919;-81
2022/01/24 03:52:58;;;;;;;;;;;6.10;99.90;;;;;;6235731;22;19950;-80
2022/01/24 03:55:27;;;;;;;;;;;5.30;99.90;;;;;;6289475;22;19925;-82
2022/01/24 03:58:15;;;;;;;;;;;6.10;99.90;;;;;;6288921;22;19938;-82
2022/01/24 04:00:47;;;;;;;;;;;6.00;99.90;;;;;;6238283;22;19926;-82
2022/01/24 04:03:18;;;;;;;;;;;6.10;99.90;;;;;;6274729;22;19919;-81
2022/01/24 04:05:50;;;;;;;;;;;4.40;99.90;;;;;;6297415;22;19926;-80
2022/01/24 04:08:20;;;;;;;;;;;6.10;99.90;;;;;;6212235;22;19919;-81
2022/01/24 04:11:11;;;;;;;;;;;6.20;99.90;;;;;;6277738;22;19925;-82
2022/01/24 04:13:43;;;;;;;;;;;6.20;99.90;;;;;;6300555;22;19926;-82
2022/01/24 04:16:28;;;;;;;;;;;6.10;99.90;;;;;;6266563;22;19929;-81
2022/01/24 04:21:19;;;;;;;;;;;6.00;99.90;;;;;;6300708;22;19926;-82
2022/01/24 04:22:31;;;;;;;;;;;6.10;99.90;;;;;;6289783;22;19919;-81
2022/01/24 04:25:14;;;;;;;;;;;6.00;99.90;;;;;;6264094;22;19933;-82
2022/01/24 04:27:42;;;;;;;;;;;6.40;99.90;;;;;;6273758;22;19930;-82
2022/01/24 04:30:25;;;;;;;;;;;6.00;99.90;;;;;;6263642;22;19919;-83
2022/01/24 04:33:31;;;;;;;;;;;6.00;99.90;;;;;;6268902;22;19919;-82
2022/01/24 04:36:38;;;;;;;;;;;5.90;99.90;;;;;;6235295;22;19937;-83
2022/01/24 04:39:22;;;;;;;;;;;5.90;99.90;;;;;;6292200;22;20210;-83
2022/01/24 04:42:05;;;;;;;;;;;;;;;;;;;;;
2022/01/24 04:52:12;;;;;;;;;;;5.10;99.90;;;;;;6267652;22;19926;-84
2022/01/24 04:54:51;;;;;;;;;;;6.00;99.90;;;;;;6260015;22;19920;-83
2022/01/24 04:57:58;;;;;;;;;;;4.50;99.90;;;;;;6263100;22;20240;-83
2022/01/24 05:00:55;;;;;;;;;;;5.90;99.90;;;;;;6259277;23;19945;-84
2022/01/24 05:03:51;;;;;;;;;;;4.50;99.90;;;;;;6107319;23;19927;-82
2022/01/24 05:06:50;;;;;;;;;;;6.30;99.90;;;;;;6109487;23;20044;-84
2022/01/24 05:09:33;;;;;;;;;;;;;;;;;;;;;
2022/01/24 05:24:10;;;;;;;;;;;5.80;99.90;;;;;;6269563;23;19920;-82
2022/01/24 05:26:48;;;;;;;;;;;6.10;99.90;;;;;;6258402;23;19920;-82
2022/01/24 05:29:41;;;;;;;;;;;5.90;99.90;;;;;;6235101;23;19920;-81
2022/01/24 05:32:19;;;;;;;;;;;5.80;99.90;;;;;;6260589;23;19923;-83
2022/01/24 05:35:37;;;;;;;;;;;5.80;99.90;;;;;;6104726;23;19939;-83
2022/01/24 05:38:45;;;;;;;;;;;5.90;99.90;;;;;;6144393;23;19921;-83
2022/01/24 05:42:17;;;;;;;;;;;5.90;99.90;;;;;;6143068;23;19921;-84
2022/01/24 05:45:41;;;;;;;;;;;6.00;99.90;;;;;;6144590;23;20036;-83
2022/01/24 05:49:01;;;;;;;;;;;5.50;99.90;;;;;;6130686;23;19928;-82
2022/01/24 05:52:21;;;;;;;;;;;4.70;99.90;;;;;;6208525;23;19919;-82
2022/01/24 05:54:58;;;;;;;;;;;5.80;99.90;;;;;;6258844;23;19930;-83
2022/01/24 05:57:57;;;;;;;;;;;5.40;99.90;;;;;;6232406;23;19920;-82
2022/01/24 06:00:57;;;;;;;;;;;5.50;99.90;;;;;;6257689;23;19919;-83
2022/01/24 06:03:31;;;;;;;;;;;4.60;99.90;;;;;;6244022;23;19923;-83
2022/01/24 06:06:09;;;;;;;;;;;;;;;;;;;;;
2022/01/24 06:09:02;;;;;;;;;;;6.00;99.90;;;;;;6233257;23;19920;-83
2022/01/24 06:11:47;;;;;;;;;;;5.80;99.90;;;;;;6270205;23;19920;-82
2022/01/24 06:14:20;;;;;;;;;;;5.70;99.90;;;;;;6237606;23;19930;-82
2022/01/24 06:18:04;;;;;;;;;;;;;;;;;;;;;
2022/01/24 06:34:11;;;;;;;;;;;;;;;;;;;;;
2022/01/24 06:48:56;;;;;;;;;;;5.90;99.90;;;;;;5095155;28;19916;-89
2022/01/24 06:51:24;;;;;;;;;;;5.50;99.90;;;;;;5093457;28;19932;-91
2022/01/24 06:53:53;;;;;;;;;;;5.50;99.90;;;;;;5077603;28;19936;-92
2022/01/24 06:56:22;;;;;;;;;;;5.60;99.90;;;;;;5085183;28;19961;-89
2022/01/24 06:58:49;;;;;;;;;;;5.50;99.90;;;;;;5087077;28;19935;-89
2022/01/24 07:01:19;;;;;;;;;;;5.50;99.90;;;;;;5084940;28;19932;-87
2022/01/24 07:03:48;;;;;;;;;;;5.50;99.90;;;;;;5055900;28;19940;-88
2022/01/24 07:06:17;;;;;;;;;;;5.50;99.90;;;;;;5070956;28;19947;-87
2022/01/24 07:08:47;;;;;;;;;;;5.50;99.90;;;;;;5051147;28;19952;-88
2022/01/24 07:11:15;;;;;;;;;;;5.50;99.90;;;;;;5052297;28;19932;-88
2022/01/24 07:13:44;;;;;;;;;;;5.50;99.90;;;;;;5037396;28;19929;-88
2022/01/24 07:16:14;;;;;;;;;;;5.50;99.90;;;;;;5036905;28;19936;-87
2022/01/24 07:18:58;;;;;;;;;;;5.50;99.90;;;;;;5057758;28;19929;-88
2022/01/24 07:21:28;;;;;;;;;;;5.70;99.90;;;;;;5058434;28;20093;-87
2022/01/24 07:23:58;;;;;;;;;;;5.50;99.90;;;;;;5055330;28;19932;-88
2022/01/24 07:26:27;;;;;;;;;;;5.50;99.90;;;;;;5040854;28;19929;-88
2022/01/24 07:28:55;;;;;;;;;;;5.50;99.90;;;;;;5067266;28;19924;-86
2022/01/24 07:31:22;;;;;;;;;;;5.50;99.90;;;;;;5048240;28;19932;-87
2022/01/24 07:34:01;;;;;;;;;;;5.50;99.90;;;;;;5036688;28;19929;-86
2022/01/24 07:36:38;;;;;;;;;;;5.50;99.90;;;;;;5024902;28;19925;-88
2022/01/24 07:39:15;;;;;;;;;;;5.50;99.90;;;;;;5066462;28;19933;-86
2022/01/24 07:42:03;;;;;;;;;;;5.50;99.90;;;;;;5057239;28;19935;-85
2022/01/24 07:44:32;;;;;;;;;;;5.30;99.90;;;;;;5069296;28;19925;-92
2022/01/24 07:47:01;;;;;;;;;;;5.40;99.90;;;;;;5059191;28;19924;-88
2022/01/24 07:49:31;;;;;;;;;;;5.50;99.90;;;;;;5061042;28;19925;-91
2022/01/24 07:52:12;;;;;;;;;;;5.50;99.90;;;;;;5025304;28;20684;-92
2022/01/24 07:54:39;;;;;;;;;;;5.40;99.90;;;;;;5056297;28;19929;-87
2022/01/24 07:57:09;;;;;;;;;;;5.30;99.90;;;;;;5056196;28;19940;-88
2022/01/24 07:59:37;;;;;;;;;;;5.30;99.90;;;;;;5043057;28;19929;-89
2022/01/24 08:02:05;;;;;;;;;;;5.30;99.90;;;;;;5037456;28;19929;-86
2022/01/24 08:04:33;;;;;;;;;;;5.30;99.90;;;;;;5038643;28;20283;-86
2022/01/24 08:07:00;;;;;;;;;;;5.30;99.90;;;;;;5032577;28;19933;-89
2022/01/24 08:09:28;;;;;;;;;;;5.30;99.90;;;;;;5035997;28;19929;-86
2022/01/24 08:11:56;;;;;;;;;;;5.30;99.90;;;;;;5041748;28;20021;-90
2022/01/24 08:14:24;;;;;;;;;;;5.30;99.90;;;;;;5045985;28;20128;-90
2022/01/24 08:16:52;;;;;;;;;;;5.30;99.90;;;;;;5039123;28;19929;-90
2022/01/24 08:19:20;;;;;;;;;;;5.30;99.90;;;;;;5037796;28;19947;-87
2022/01/24 08:21:53;;;;;;;;;;;5.30;99.90;;;;;;5038996;28;19929;-88
2022/01/24 08:24:20;;;;;;;;;;;5.30;99.90;;;;;;5014828;28;19929;-88
2022/01/24 08:26:48;;;;;;;;;;;5.30;99.90;;;;;;5043212;28;19925;-88
2022/01/24 08:29:18;;;;;;;;;;;5.40;99.90;;;;;;5020039;28;19925;-88
2022/01/24 08:31:47;;;;;;;;;;;5.50;99.90;;;;;;5056544;28;19928;-87
2022/01/24 08:34:15;;;;;;;;;;;5.50;99.90;;;;;;5054378;28;20466;-86
2022/01/24 08:36:43;;;;;;;;;;;5.40;99.90;;;;;;5054122;28;20291;-89
2022/01/24 08:39:11;;;;;;;;;;;5.40;99.90;;;;;;5070165;28;19929;-87
2022/01/24 08:42:01;;;;;;;;;;;5.40;99.90;;;;;;5053817;28;19936;-87
2022/01/24 08:47:25;;;;;;;;;;;5.40;99.90;;;;;;4671374;28;9999579;-88
2022/01/24 08:50:11;;;;;;;;;;;5.40;99.90;;;;;;5037673;28;19940;-88
2022/01/24 08:52:39;;;;;;;;;;;5.50;99.90;;;;;;5042988;28;19925;-87
2022/01/24 08:55:14;;;;;;;;;;;5.50;99.90;;;;;;5023838;28;19936;-88
2022/01/24 08:57:46;;;;;;;;;;;5.50;99.90;;;;;;5031495;28;20820;-89
2022/01/24 09:00:14;;;;;;;;;;;5.30;99.90;;;;;;5019980;28;19925;-88
2022/01/24 09:02:41;;;;;;;;;;;5.40;99.90;;;;;;5034784;28;19955;-88
2022/01/24 09:05:09;;;;;;;;;;;5.40;99.90;;;;;;5037125;28;19945;-86
2022/01/24 09:07:37;;;;;;;;;;;4.10;99.90;;;;;;5018753;28;19929;-88
2022/01/24 09:10:06;;;;;;;;;;;5.40;99.90;;;;;;5018395;28;19929;-87
2022/01/24 09:12:34;;;;;;;;;;;5.50;99.90;;;;;;5017618;28;20312;-87
2022/01/24 09:15:02;;;;;;;;;;;5.40;99.90;;;;;;5036009;28;19929;-88
2022/01/24 09:17:30;;;;;;;;;;;5.50;99.90;;;;;;5035310;28;20304;-87
2022/01/24 09:19:59;;;;;;;;;;;4.40;99.90;;;;;;5037192;28;19936;-90
2022/01/24 09:22:41;;;;;;;;;;;5.50;99.90;;;;;;5034628;28;19936;-88
2022/01/24 09:25:10;;;;;;;;;;;5.60;99.90;;;;;;5035615;28;20422;-87
2022/01/24 09:27:38;;;;;;;;;;;5.50;99.90;;;;;;5048391;28;20342;-87
2022/01/24 09:30:09;;;;;;;;;;;5.50;99.90;;;;;;5033010;28;20341;-84
2022/01/24 09:32:41;;;;;;;;;;;5.50;99.90;;;;;;5036836;28;19925;-87
2022/01/24 09:35:09;;;;;;;;;;;5.60;99.90;;;;;;5041490;28;19929;-88
2022/01/24 09:37:38;;;;;;;;;;;5.50;99.90;;;;;;5035637;28;19932;-86
2022/01/24 09:40:07;;;;;;;;;;;5.50;99.90;;;;;;5033563;28;20454;-87
2022/01/24 09:42:35;;;;;;;;;;;5.60;99.90;;;;;;5036278;28;19925;-87
2022/01/24 09:45:03;;;;;;;;;;;5.50;99.90;;;;;;5037350;28;19925;-87
2022/01/24 09:47:36;;;;;;;;;;;5.60;99.90;;;;;;5035272;28;19933;-87
2022/01/24 09:50:05;;;;;;;;;;;5.50;99.90;;;;;;5035941;28;19925;-85
2022/01/24 09:52:33;;;;;;;;;;;5.60;99.90;;;;;;5038887;28;19940;-86
2022/01/24 09:55:00;;;;;;;;;;;6.30;99.90;;;;;;5036275;28;19936;-87
2022/01/24 09:57:29;;;;;;;;;;;5.50;99.90;;;;;;5040575;28;19936;-89
2022/01/24 09:59:56;;;;;;;;;;;5.60;99.90;;;;;;5043097;28;19925;-89
2022/01/24 10:02:25;;;;;;;;;;;5.50;99.90;;;;;;5017580;28;19925;-87
2022/01/24 10:05:11;;;;;;;;;;;5.50;99.90;;;;;;5021306;28;20447;-89
2022/01/24 10:07:41;;;;;;;;;;;5.50;99.90;;;;;;5040081;28;19925;-85
2022/01/24 10:10:33;;;;;;;;;;;5.50;99.90;;;;;;5033459;28;19929;-87
2022/01/24 10:19:02;;;;;;;;;;;5.40;99.90;;;;;;5031465;28;19929;-87
2022/01/24 10:21:52;;;;;;;;;;;5.50;99.90;;;;;;5037572;28;19928;-86
2022/01/24 10:24:42;;;;;;;;;;;5.50;99.90;;;;;;5036885;28;19932;-86
2022/01/24 10:27:28;;;;;;;;;;;5.60;99.90;;;;;;5035532;28;19925;-86
2022/01/24 10:29:55;;;;;;;;;;;5.60;99.90;;;;;;5033132;28;19947;-86
2022/01/24 10:32:37;;;;;;;;;;;5.70;99.90;;;;;;5031727;28;19925;-89
2022/01/24 10:35:23;;;;;;;;;;;5.60;99.90;;;;;;5035277;28;19929;-89
2022/01/24 10:38:15;;;;;;;;;;;5.60;99.90;;;;;;5028426;28;19925;-91
2022/01/24 10:40:52;;;;;;;;;;;5.60;99.90;;;;;;5045555;28;19925;-90
2022/01/24 10:43:24;;;;;;;;;;;5.60;99.90;;;;;;5036635;28;19925;-89
2022/01/24 10:45:56;;;;;;;;;;;4.70;99.90;;;;;;5039185;28;19925;-91
2022/01/24 10:48:35;;;;;;;;;;;5.60;99.90;;;;;;5039073;28;19940;-88
2022/01/24 10:51:07;;;;;;;;;;;5.70;99.90;;;;;;5044497;28;19925;-93
2022/01/24 10:53:37;;;;;;;;;;;5.70;99.90;;;;;;5058537;28;19931;-88
2022/01/24 10:56:24;;;;;;;;;;;5.70;99.90;;;;;;5044752;28;19928;-88
2022/01/24 10:58:53;;;;;;;;;;;5.70;99.90;;;;;;5044717;28;19954;-91
2022/01/24 11:01:29;;;;;;;;;;;5.70;99.90;;;;;;5046913;28;19933;-89
2022/01/24 11:03:59;;;;;;;;;;;5.70;99.90;;;;;;5038995;28;19925;-88
2022/01/24 11:06:29;;;;;;;;;;;5.70;99.90;;;;;;5036889;28;19941;-89
2022/01/24 11:09:29;;;;;;;;;;;5.70;99.90;;;;;;5022712;28;20089;-88
2022/01/24 11:12:05;;;;;;;;;;;5.80;99.90;;;;;;5050874;28;19940;-88
2022/01/24 11:14:40;;;;;;;;;;;5.80;99.90;;;;;;5054960;28;19929;-86
2022/01/24 11:17:09;;;;;;;;;;;5.80;99.90;;;;;;5032892;28;19933;-86
2022/01/24 11:19:43;;;;;;;;;;;5.90;99.90;;;;;;5034457;28;19925;-85
2022/01/24 11:22:26;;;;;;;;;;;6.20;99.90;;;;;;5031524;28;19937;-86
2022/01/24 11:25:03;;;;;;;;;;;5.80;99.90;;;;;;5040040;28;19925;-87
2022/01/24 11:27:36;;;;;;;;;;;5.80;99.90;;;;;;5027791;28;19956;-87
2022/01/24 11:30:09;;;;;;;;;;;5.80;99.90;;;;;;5035599;28;19929;-89
2022/01/24 11:32:56;;;;;;;;;;;5.80;99.90;;;;;;5037286;28;19937;-89
2022/01/24 11:35:34;;;;;;;;;;;5.20;99.90;;;;;;5041135;28;19950;-87
2022/01/24 11:38:02;;;;;;;;;;;5.90;99.90;;;;;;5043580;28;19925;-87
2022/01/24 11:40:46;;;;;;;;;;;5.80;99.90;;;;;;5025451;28;19933;-92
2022/01/24 11:43:26;;;;;;;;;;;6.50;99.90;;;;;;5054714;28;19929;-89
2022/01/24 11:46:03;;;;;;;;;;;6.00;99.90;;;;;;5043975;28;19960;-90
2022/01/24 11:48:32;;;;;;;;;;;5.90;99.90;;;;;;5041805;28;19929;-88
2022/01/24 11:51:03;;;;;;;;;;;5.90;99.90;;;;;;5065173;28;19925;-91
2022/01/24 11:53:32;;;;;;;;;;;5.90;99.90;;;;;;5063535;28;19925;-90
2022/01/24 11:56:37;;;;;;;;;;;7.50;99.90;;;;;;5063958;28;19924;-89
2022/01/24 11:59:22;;;;;;;;;;;6.00;99.90;;;;;;5014631;28;20069;-91
2022/01/24 12:02:12;;;;;;;;;;;6.00;99.90;;;;;;5045874;28;19940;-88
2022/01/24 12:07:59;;;;;;;;;;;6.00;99.90;;;;;;5055491;28;19932;-90
2022/01/24 12:10:51;;;;;;;;;;;6.00;99.90;;;;;;5053514;28;19913;-89
2022/01/24 12:13:25;;;;;;;;;;;6.10;99.90;;;;;;5040167;28;19913;-89
2022/01/24 12:15:55;;;;;;;;;;;6.00;99.90;;;;;;5056522;28;19920;-87
2022/01/24 12:18:43;;;;;;;;;;;6.10;99.90;;;;;;5048574;28;19963;-90
2022/01/24 12:21:14;;;;;;;;;;;6.10;99.90;;;;;;5053174;28;19929;-90
2022/01/24 12:23:47;;;;;;;;;;;6.10;99.90;;;;;;5041676;28;19929;-88
2022/01/24 12:26:42;;;;;;;;;;;6.10;99.90;;;;;;5022837;28;19940;-88
2022/01/24 12:29:14;;;;;;;;;;;6.30;99.90;;;;;;5027218;28;19930;-89
2022/01/24 12:32:01;;;;;;;;;;;6.00;99.90;;;;;;5017077;28;19935;-89
2022/01/24 12:34:41;;;;;;;;;;;5.90;99.90;;;;;;5041076;28;20287;-89
2022/01/24 12:37:12;;;;;;;;;;;5.90;99.90;;;;;;5039964;28;19925;-90
2022/01/24 12:39:49;;;;;;;;;;;5.90;99.90;;;;;;5048450;28;19925;-90
2022/01/24 12:42:32;;;;;;;;;;;5.90;99.90;;;;;;5045989;28;20000;-90
2022/01/24 12:48:12;;;;;;;;;;;5.90;99.90;;;;;;5040576;28;19929;-87
2022/01/24 12:50:48;;;;;;;;;;;6.00;99.90;;;;;;5025421;28;19932;-86
2022/01/24 12:53:42;;;;;;;;;;;6.00;99.90;;;;;;5036182;28;19929;-90
2022/01/24 12:56:15;;;;;;;;;;;5.90;99.90;;;;;;5042119;28;19933;-90
2022/01/24 12:58:46;;;;;;;;;;;5.90;99.90;;;;;;5043943;28;20385;-91
2022/01/24 13:01:31;;;;;;;;;;;6.00;99.90;;;;;;5042823;28;19929;-91
2022/01/24 13:04:08;;;;;;;;;;;6.00;99.90;;;;;;5067684;28;19936;-91
2022/01/24 13:06:38;;;;;;;;;;;6.00;99.90;;;;;;5041324;28;19952;-89
2022/01/24 13:09:10;;;;;;;;;;;6.00;99.90;;;;;;5053461;28;19932;-89
2022/01/24 13:11:48;;;;;;;;;;;6.00;99.90;;;;;;5063159;28;19924;-90
2022/01/24 13:14:27;;;;;;;;;;;6.20;99.90;;;;;;5038450;28;19925;-90
2022/01/24 13:25:15;;;;;;;;;;;6.10;99.90;;;;;;5043783;28;19936;-91
2022/01/24 13:27:57;;;;;;;;;;;6.10;99.90;;;;;;5026674;28;19929;-90
2022/01/24 13:30:28;;;;;;;;;;;6.10;99.90;;;;;;5037385;28;19925;-89
2022/01/24 13:33:03;;;;;;;;;;;6.10;99.90;;;;;;5042310;28;19933;-92
2022/01/24 13:35:42;;;;;;;;;;;4.60;99.90;;;;;;5038917;28;19929;-93
2022/01/24 13:38:28;;;;;;;;;;;6.30;99.90;;;;;;5009276;28;19925;-93
2022/01/24 13:41:02;;;;;;;;;;;6.30;99.90;;;;;;4990404;28;19925;-93
2022/01/24 13:43:34;;;;;;;;;;;6.50;99.90;;;;;;5038320;28;19925;-91
2022/01/24 13:46:03;;;;;;;;;;;6.40;99.90;;;;;;5042785;28;19931;-93
2022/01/24 13:48:44;;;;;;;;;;;6.30;99.90;;;;;;5023355;28;19933;-93
2022/01/24 13:51:12;;;;;;;;;;;6.50;99.90;;;;;;5024761;28;19952;-89
2022/01/24 13:54:10;;;;;;;;;;;6.50;99.90;;;;;;5040691;28;19925;-90
2022/01/24 13:56:50;;;;;;;;;;;6.50;99.90;;;;;;5037411;28;19925;-88
2022/01/24 13:59:19;;;;;;;;;;;6.50;99.90;;;;;;5052903;28;19938;-85
2022/01/24 14:01:51;;;;;;;;;;;6.30;99.90;;;;;;5022817;28;19925;-88
2022/01/24 14:04:24;;;;;;;;;;;6.40;99.90;;;;;;5036860;28;19939;-92
2022/01/24 14:07:05;;;;;;;;;;;6.40;99.90;;;;;;5042140;28;20368;-92
2022/01/24 14:09:35;;;;;;;;;;;6.30;99.90;;;;;;5043577;28;19932;-91
2022/01/24 14:12:07;;;;;;;;;;;6.30;99.90;;;;;;5044473;28;19932;-90
2022/01/24 14:20:17;;;;;;;;;;;6.30;99.90;;;;;;5040386;28;19936;-90
2022/01/24 14:22:51;;;;;;;;;;;6.20;99.90;;;;;;5039772;28;20450;-90
2022/01/24 14:25:21;;;;;;;;;;;6.30;99.90;;;;;;5021036;28;19933;-90
2022/01/24 14:27:52;;;;;;;;;;;6.20;99.90;;;;;;5068457;28;19936;-89
2022/01/24 14:30:37;;;;;;;;;;;6.10;99.90;;;;;;5061269;28;19929;-88
2022/01/24 14:33:14;;;;;;;;;;;6.10;99.90;;;;;;5046900;28;19925;-90
2022/01/24 14:35:51;;;;;;;;;;;6.00;99.90;;;;;;5045034;28;19925;-90
2022/01/24 14:38:46;;;;;;;;;;;6.20;99.90;;;;;;5026001;28;19925;-89
2022/01/24 14:41:26;;;;;;;;;;;6.00;99.90;;;;;;5036350;28;19936;-93
2022/01/24 14:46:54;;;;;;;;;;;5.90;99.90;;;;;;5039908;28;19925;-91
2022/01/24 14:49:35;;;;;;;;;;;5.90;99.90;;;;;;5035951;28;20384;-92
2022/01/24 14:52:42;;;;;;;;;;;6.10;99.90;;;;;;5045897;28;19925;-88
2022/01/24 14:55:10;;;;;;;;;;;6.80;99.90;;;;;;5037484;28;19925;-91
2022/01/24 14:57:38;;;;;;;;;;;5.90;99.90;;;;;;5041738;28;19929;-91
2022/01/24 15:00:07;;;;;;;;;;;6.10;99.90;;;;;;5023719;28;19932;-91
2022/01/24 15:02:35;;;;;;;;;;;6.00;99.90;;;;;;5024486;28;19936;-95
2022/01/24 15:05:08;;;;;;;;;;;6.00;99.90;;;;;;5041085;28;19944;-92
2022/01/24 15:07:37;;;;;;;;;;;6.00;99.90;;;;;;5015130;28;19956;-95
2022/01/24 15:10:06;;;;;;;;;;;6.00;99.90;;;;;;5037306;28;19925;-87
2022/01/24 15:12:38;;;;;;;;;;;6.00;99.90;;;;;;5023051;28;19925;-88
2022/01/24 15:15:08;;;;;;;;;;;6.10;99.90;;;;;;5037477;28;20261;-90
2022/01/24 15:25:59;;;;;;;;;;;6.00;99.90;;;;;;5035396;28;19929;-91
2022/01/24 15:28:27;;;;;;;;;;;6.00;99.90;;;;;;5036736;28;19925;-87
2022/01/24 15:30:54;;;;;;;;;;;6.00;99.90;;;;;;5033067;28;19926;-88
2022/01/24 15:33:22;;;;;;;;;;;6.00;99.90;;;;;;5033023;28;19933;-88
2022/01/24 15:35:50;;;;;;;;;;;6.00;99.90;;;;;;5030813;28;19925;-88
2022/01/24 15:38:18;;;;;;;;;;;6.00;99.90;;;;;;5028986;28;19937;-88
2022/01/24 15:40:47;;;;;;;;;;;5.90;99.90;;;;;;5030226;28;19940;-86
2022/01/24 15:46:23;;;;;;;;;;;5.90;99.90;;;;;;5032910;28;19929;-85
2022/01/24 15:48:47;;;;;;;;;;;5.90;99.90;;;;;;5031087;28;19945;-87
2022/01/24 15:51:17;;;;;;;;;;;5.70;99.90;;;;;;5037196;28;19940;-86
2022/01/24 15:53:45;;;;;;;;;;;5.80;99.90;;;;;;5037122;28;19925;-89
2022/01/24 15:57:39;;;;;;;;;;;6.10;99.90;;;;;;5036223;28;19925;-89
2022/01/24 15:59:07;;;;;;;;;;;5.80;99.90;;;;;;5039521;28;19933;-92
2022/01/24 16:01:34;;;;;;;;;;;5.80;99.90;;;;;;5024516;28;19929;-92
2022/01/24 16:04:15;;;;;;;;;;;5.90;99.90;;;;;;5039367;28;19929;-88
2022/01/24 16:06:48;;;;;;;;;;;5.80;99.90;;;;;;5048484;28;19933;-92
2022/01/24 16:09:16;;;;;;;;;;;6.20;99.90;;;;;;5043781;28;19940;-87
2022/01/24 16:11:44;;;;;;;;;;;5.80;99.90;;;;;;4685317;28;10000893;-88
2022/01/24 16:14:30;;;;;;;;;;;5.90;99.90;;;;;;5072082;28;19928;-88
2022/01/24 16:17:01;;;;;;;;;;;5.80;99.90;;;;;;5041377;28;20376;-86
2022/01/24 16:19:37;;;;;;;;;;;5.40;99.90;;;;;;5038891;28;19933;-87
2022/01/24 16:27:42;;;;;;;;;;;5.90;99.90;;;;;;5054546;28;19932;-88
2022/01/24 16:30:11;;;;;;;;;;;6.00;99.90;;;;;;5035175;28;19933;-88
2022/01/24 16:32:42;;;;;;;;;;;5.80;99.90;;;;;;5031544;28;19933;-88
2022/01/24 16:35:09;;;;;;;;;;;5.80;99.90;;;;;;5031073;28;20379;-91
2022/01/24 16:37:39;;;;;;;;;;;5.80;99.90;;;;;;5034069;28;19929;-90
2022/01/24 16:40:12;;;;;;;;;;;5.80;99.90;;;;;;5065670;28;19929;-90
2022/01/24 16:43:06;;;;;;;;;;;5.80;99.90;;;;;;5067895;28;19936;-89
2022/01/24 16:48:17;;;;;;;;;;;5.80;99.90;;;;;;5068166;28;19932;-88
2022/01/24 16:50:45;;;;;;;;;;;6.20;99.90;;;;;;5019104;28;19933;-85
2022/01/24 16:53:15;;;;;;;;;;;5.70;99.90;;;;;;5027193;28;19940;-86
2022/01/24 16:55:46;;;;;;;;;;;5.70;99.90;;;;;;5026999;28;19940;-86
2022/01/24 16:58:14;;;;;;;;;;;5.80;99.90;;;;;;5027911;28;19933;-87
2022/01/24 17:00:49;;;;;;;;;;;5.70;99.90;;;;;;5028976;28;19933;-84
2022/01/24 17:03:17;;;;;;;;;;;5.40;99.90;;;;;;5031496;28;20340;-86
2022/01/24 17:05:46;;;;;;;;;;;5.70;99.90;;;;;;5030031;28;19933;-83
2022/01/24 17:08:18;;;;;;;;;;;4.40;99.90;;;;;;5027941;28;19940;-86
2022/01/24 17:10:46;;;;;;;;;;;5.70;99.90;;;;;;5028065;28;20431;-86
2022/01/24 17:13:14;;;;;;;;;;;5.70;99.90;;;;;;5030774;28;19933;-84
2022/01/24 17:15:48;;;;;;;;;;;5.20;99.90;;;;;;5030420;28;19937;-86
2022/01/24 17:18:17;;;;;;;;;;;5.60;99.90;;;;;;5031247;28;20472;-87
2022/01/24 17:20:46;;;;;;;;;;;5.50;99.90;;;;;;5016014;28;19925;-87
2022/01/24 17:23:16;;;;;;;;;;;5.80;99.90;;;;;;5017302;28;20702;-86
2022/01/24 17:25:55;;;;;;;;;;;5.60;99.90;;;;;;5032336;28;19932;-84
2022/01/24 17:28:25;;;;;;;;;;;5.60;99.90;;;;;;5034385;28;19925;-89
2022/01/24 17:30:54;;;;;;;;;;;5.60;99.90;;;;;;5037087;28;19926;-90
2022/01/24 17:33:31;;;;;;;;;;;5.60;99.90;;;;;;5022051;28;19925;-90
2022/01/24 17:36:00;;;;;;;;;;;5.60;99.90;;;;;;5028816;28;19933;-93
2022/01/24 17:38:29;;;;;;;;;;;5.60;99.90;;;;;;5040738;28;19944;-91
2022/01/24 17:40:57;;;;;;;;;;;5.60;99.90;;;;;;5041253;28;19926;-91
2022/01/24 17:43:28;;;;;;;;;;;5.60;99.90;;;;;;5040924;28;19932;-91
2022/01/24 17:45:57;;;;;;;;;;;5.60;99.90;;;;;;5073889;28;19925;-91
2022/01/24 17:48:27;;;;;;;;;;;5.50;99.90;;;;;;5070934;28;19929;-91
2022/01/24 17:50:56;;;;;;;;;;;5.50;99.90;;;;;;5021211;28;19929;-90
2022/01/24 17:53:27;;;;;;;;;;;5.50;99.90;;;;;;5053070;28;20269;-88
2022/01/24 17:55:58;;;;;;;;;;;5.50;99.90;;;;;;5076555;28;19929;-91
2022/01/24 17:58:31;;;;;;;;;;;5.30;99.90;;;;;;5011833;28;19925;-91
2022/01/24 18:00:59;;;;;;;;;;;5.50;99.90;;;;;;5029638;28;19936;-91
2022/01/24 18:03:31;;;;;;;;;;;5.50;99.90;;;;;;5020812;28;19925;-92
2022/01/24 18:06:03;;;;;;;;;;;5.50;99.90;;;;;;5071095;28;19933;-93
2022/01/24 18:08:39;;;;;;;;;;;5.50;99.90;;;;;;5051099;28;19939;-91
2022/01/24 18:11:18;;;;;;;;;;;5.40;99.90;;;;;;5038476;28;19913;-92
2022/01/24 18:13:51;;;;;;;;;;;5.50;99.90;;;;;;4686230;28;9999906;-91
2022/01/24 18:16:41;;;;;;;;;;;5.30;99.90;;;;;;5031512;28;19925;-90
2022/01/24 18:19:11;;;;;;;;;;;5.30;99.90;;;;;;5036490;28;19917;-93
2022/01/24 18:21:42;;;;;;;;;;;5.30;99.90;;;;;;5038134;28;19932;-91
2022/01/24 18:24:11;;;;;;;;;;;5.20;99.90;;;;;;5033466;28;19909;-90
2022/01/24 18:26:42;;;;;;;;;;;5.20;99.90;;;;;;5048936;28;19929;-91
2022/01/24 18:29:13;;;;;;;;;;;5.10;99.90;;;;;;5042716;28;19929;-90
2022/01/24 18:32:25;;;;;;;;;;;5.20;99.90;;;;;;5029638;28;20005;-89
2022/01/24 18:35:01;;;;;;;;;;;5.20;99.90;;;;;;5059984;28;20287;-88
2022/01/24 18:40:51;;;;;;;;;;;5.30;99.90;;;;;;5077313;28;19933;-91
2022/01/24 18:43:27;;;;;;;;;;;5.20;99.90;;;;;;5028891;28;19935;-90
2022/01/24 18:46:01;;;;;;;;;;;5.70;99.90;;;;;;5040961;28;19940;-90